sensor_id;sensor_type;location;lat;lon;timestamp;temperature;humidity
23560;DHT22;11958;50.836;4.438;2024-02-26T00:00:28;8.40;84.80
23560;DHT22;11958;50.836;4.438;2024-02-26T00:02:54;8.40;84.70
23560;DHT22;11958;50.836;4.438;2024-02-26T00:05:20;8.40;85.80
23560;DHT22;11958;50.836;4.438;2024-02-26T00:07:46;8.40;86.20
23560;DHT22;11958;50.836;4.438;2024-02-26T00:10:13;8.40;85.60
23560;DHT22;11958;50.836;4.438;2024-02-26T00:12:39;8.40;85.10
23560;DHT22;11958;50.836;4.438;2024-02-26T00:15:06;8.60;85.20
23560;DHT22;11958;50.836;4.438;2024-02-26T00:17:32;8.60;85.20
23560;DHT22;11958;50.836;4.438;2024-02-26T00:19:57;8.50;85.20
23560;DHT22;11958;50.836;4.438;2024-02-26T00:22:23;8.50;84.80
23560;DHT22;11958;50.836;4.438;2024-02-26T00:24:48;8.30;85.90
23560;DHT22;11958;50.836;4.438;2024-02-26T00:27:14;8.40;85.60
23560;DHT22;11958;50.836;4.438;2024-02-26T00:29:40;8.40;85.70
23560;DHT22;11958;50.836;4.438;2024-02-26T00:32:05;8.30;85.40
23560;DHT22;11958;50.836;4.438;2024-02-26T00:34:31;8.20;86.50
23560;DHT22;11958;50.836;4.438;2024-02-26T00:36:57;8.20;86.60
23560;DHT22;11958;50.836;4.438;2024-02-26T00:39:23;8.30;87.10
23560;DHT22;11958;50.836;4.438;2024-02-26T00:41:48;8.40;85.90
23560;DHT22;11958;50.836;4.438;2024-02-26T00:44:14;8.40;86.50
23560;DHT22;11958;50.836;4.438;2024-02-26T00:46:40;8.50;85.40
23560;DHT22;11958;50.836;4.438;2024-02-26T00:49:05;8.30;86.20
23560;DHT22;11958;50.836;4.438;2024-02-26T00:51:31;8.30;86.40
23560;DHT22;11958;50.836;4.438;2024-02-26T00:53:57;8.10;86.80
23560;DHT22;11958;50.836;4.438;2024-02-26T00:56:22;8.30;86.80
23560;DHT22;11958;50.836;4.438;2024-02-26T00:58:48;8.20;86.90
23560;DHT22;11958;50.836;4.438;2024-02-26T01:01:14;8.30;86.80
23560;DHT22;11958;50.836;4.438;2024-02-26T01:03:39;8.00;86.80
23560;DHT22;11958;50.836;4.438;2024-02-26T01:06:05;7.90;87.80
23560;DHT22;11958;50.836;4.438;2024-02-26T01:08:30;8.10;87.40
23560;DHT22;11958;50.836;4.438;2024-02-26T01:10:57;8.20;87.00
23560;DHT22;11958;50.836;4.438;2024-02-26T01:13:22;7.70;88.00
23560;DHT22;11958;50.836;4.438;2024-02-26T01:15:48;7.80;88.60
23560;DHT22;11958;50.836;4.438;2024-02-26T01:18:14;8.00;87.90
23560;DHT22;11958;50.836;4.438;2024-02-26T01:20:39;7.50;88.60
23560;DHT22;11958;50.836;4.438;2024-02-26T01:23:05;8.00;88.20
23560;DHT22;11958;50.836;4.438;2024-02-26T01:25:31;7.90;88.60
23560;DHT22;11958;50.836;4.438;2024-02-26T01:27:57;8.00;88.10
23560;DHT22;11958;50.836;4.438;2024-02-26T01:30:22;8.30;87.70
23560;DHT22;11958;50.836;4.438;2024-02-26T01:32:48;8.00;88.00
23560;DHT22;11958;50.836;4.438;2024-02-26T01:35:13;7.80;88.60
23560;DHT22;11958;50.836;4.438;2024-02-26T01:37:39;8.10;88.30
23560;DHT22;11958;50.836;4.438;2024-02-26T01:40:06;8.00;87.90
23560;DHT22;11958;50.836;4.438;2024-02-26T01:42:32;7.80;88.20
23560;DHT22;11958;50.836;4.438;2024-02-26T01:44:59;8.00;88.20
23560;DHT22;11958;50.836;4.438;2024-02-26T01:47:26;8.00;87.80
23560;DHT22;11958;50.836;4.438;2024-02-26T01:49:52;8.10;88.60
23560;DHT22;11958;50.836;4.438;2024-02-26T01:52:18;7.80;88.80
23560;DHT22;11958;50.836;4.438;2024-02-26T01:54:45;8.00;89.30
23560;DHT22;11958;50.836;4.438;2024-02-26T01:57:12;7.90;88.30
23560;DHT22;11958;50.836;4.438;2024-02-26T01:59:39;8.00;88.70
23560;DHT22;11958;50.836;4.438;2024-02-26T02:02:07;7.80;88.10
23560;DHT22;11958;50.836;4.438;2024-02-26T02:04:35;7.70;88.60
23560;DHT22;11958;50.836;4.438;2024-02-26T02:07:01;7.70;87.90
23560;DHT22;11958;50.836;4.438;2024-02-26T02:09:28;7.60;89.00
23560;DHT22;11958;50.836;4.438;2024-02-26T02:11:54;7.60;89.20
23560;DHT22;11958;50.836;4.438;2024-02-26T02:14:19;7.40;89.50
23560;DHT22;11958;50.836;4.438;2024-02-26T02:16:46;7.60;90.00
23560;DHT22;11958;50.836;4.438;2024-02-26T02:19:12;7.30;89.40
23560;DHT22;11958;50.836;4.438;2024-02-26T02:21:38;7.50;90.30
23560;DHT22;11958;50.836;4.438;2024-02-26T02:24:04;7.60;89.70
23560;DHT22;11958;50.836;4.438;2024-02-26T02:26:30;7.90;89.00
23560;DHT22;11958;50.836;4.438;2024-02-26T02:28:55;8.00;88.20
23560;DHT22;11958;50.836;4.438;2024-02-26T02:31:21;7.80;88.20
23560;DHT22;11958;50.836;4.438;2024-02-26T02:33:48;7.70;89.00
23560;DHT22;11958;50.836;4.438;2024-02-26T02:36:14;7.70;88.90
23560;DHT22;11958;50.836;4.438;2024-02-26T02:38:49;7.50;88.90
23560;DHT22;11958;50.836;4.438;2024-02-26T02:41:15;7.80;89.00
23560;DHT22;11958;50.836;4.438;2024-02-26T02:43:41;7.60;89.90
23560;DHT22;11958;50.836;4.438;2024-02-26T02:46:07;7.70;90.30
23560;DHT22;11958;50.836;4.438;2024-02-26T02:48:32;7.80;89.80
23560;DHT22;11958;50.836;4.438;2024-02-26T02:50:58;7.80;88.90
23560;DHT22;11958;50.836;4.438;2024-02-26T02:53:23;7.90;89.80
23560;DHT22;11958;50.836;4.438;2024-02-26T02:55:49;7.90;89.30
23560;DHT22;11958;50.836;4.438;2024-02-26T02:58:15;7.90;89.40
23560;DHT22;11958;50.836;4.438;2024-02-26T03:00:41;7.90;88.80
23560;DHT22;11958;50.836;4.438;2024-02-26T03:03:06;8.00;89.20
23560;DHT22;11958;50.836;4.438;2024-02-26T03:05:32;7.80;89.40
23560;DHT22;11958;50.836;4.438;2024-02-26T03:07:58;7.50;89.60
23560;DHT22;11958;50.836;4.438;2024-02-26T03:10:23;7.90;89.10
23560;DHT22;11958;50.836;4.438;2024-02-26T03:12:50;7.70;89.00
23560;DHT22;11958;50.836;4.438;2024-02-26T03:15:15;7.70;89.30
23560;DHT22;11958;50.836;4.438;2024-02-26T03:17:41;7.70;89.80
23560;DHT22;11958;50.836;4.438;2024-02-26T03:20:08;7.70;90.10
23560;DHT22;11958;50.836;4.438;2024-02-26T03:22:35;7.60;90.60
23560;DHT22;11958;50.836;4.438;2024-02-26T03:25:01;8.00;89.20
23560;DHT22;11958;50.836;4.438;2024-02-26T03:27:27;7.90;89.00
23560;DHT22;11958;50.836;4.438;2024-02-26T03:29:53;7.90;88.70
23560;DHT22;11958;50.836;4.438;2024-02-26T03:32:18;7.90;88.60
23560;DHT22;11958;50.836;4.438;2024-02-26T03:34:44;7.90;89.30
23560;DHT22;11958;50.836;4.438;2024-02-26T03:37:10;7.60;89.00
23560;DHT22;11958;50.836;4.438;2024-02-26T03:39:36;7.70;89.70
23560;DHT22;11958;50.836;4.438;2024-02-26T03:42:02;7.80;89.40
23560;DHT22;11958;50.836;4.438;2024-02-26T03:44:28;7.50;89.40
23560;DHT22;11958;50.836;4.438;2024-02-26T03:46:54;7.60;90.80
23560;DHT22;11958;50.836;4.438;2024-02-26T03:49:19;7.50;90.80
23560;DHT22;11958;50.836;4.438;2024-02-26T03:51:45;7.40;90.50
23560;DHT22;11958;50.836;4.438;2024-02-26T03:54:10;7.20;91.10
23560;DHT22;11958;50.836;4.438;2024-02-26T03:56:36;7.40;91.30
23560;DHT22;11958;50.836;4.438;2024-02-26T03:59:02;7.40;91.10
23560;DHT22;11958;50.836;4.438;2024-02-26T04:01:28;7.50;90.90
23560;DHT22;11958;50.836;4.438;2024-02-26T04:03:54;7.20;90.40
23560;DHT22;11958;50.836;4.438;2024-02-26T04:06:22;7.10;91.80
23560;DHT22;11958;50.836;4.438;2024-02-26T04:08:48;7.00;92.00
23560;DHT22;11958;50.836;4.438;2024-02-26T04:11:14;6.90;92.30
23560;DHT22;11958;50.836;4.438;2024-02-26T04:13:46;7.20;92.70
23560;DHT22;11958;50.836;4.438;2024-02-26T04:16:15;7.00;92.40
23560;DHT22;11958;50.836;4.438;2024-02-26T04:18:42;7.30;92.50
23560;DHT22;11958;50.836;4.438;2024-02-26T04:21:07;7.40;92.10
23560;DHT22;11958;50.836;4.438;2024-02-26T04:23:33;7.40;91.20
23560;DHT22;11958;50.836;4.438;2024-02-26T04:25:59;7.60;91.40
23560;DHT22;11958;50.836;4.438;2024-02-26T04:28:24;7.40;91.30
23560;DHT22;11958;50.836;4.438;2024-02-26T04:30:56;7.40;91.50
23560;DHT22;11958;50.836;4.438;2024-02-26T04:33:22;7.40;92.00
23560;DHT22;11958;50.836;4.438;2024-02-26T04:35:47;6.90;92.30
23560;DHT22;11958;50.836;4.438;2024-02-26T04:38:13;6.80;92.70
23560;DHT22;11958;50.836;4.438;2024-02-26T04:40:39;6.80;93.20
23560;DHT22;11958;50.836;4.438;2024-02-26T04:43:04;6.90;93.40
23560;DHT22;11958;50.836;4.438;2024-02-26T04:45:30;7.00;93.70
23560;DHT22;11958;50.836;4.438;2024-02-26T04:47:55;7.10;93.10
23560;DHT22;11958;50.836;4.438;2024-02-26T04:50:21;7.00;92.80
23560;DHT22;11958;50.836;4.438;2024-02-26T04:52:47;6.90;92.60
23560;DHT22;11958;50.836;4.438;2024-02-26T04:55:12;7.00;93.20
23560;DHT22;11958;50.836;4.438;2024-02-26T04:57:38;7.10;93.20
23560;DHT22;11958;50.836;4.438;2024-02-26T05:00:04;6.90;92.80
23560;DHT22;11958;50.836;4.438;2024-02-26T05:02:30;7.30;92.30
23560;DHT22;11958;50.836;4.438;2024-02-26T05:04:58;6.80;93.00
23560;DHT22;11958;50.836;4.438;2024-02-26T05:07:24;6.90;93.50
23560;DHT22;11958;50.836;4.438;2024-02-26T05:09:50;6.80;93.80
23560;DHT22;11958;50.836;4.438;2024-02-26T05:12:15;6.80;93.60
23560;DHT22;11958;50.836;4.438;2024-02-26T05:14:42;7.00;93.50
23560;DHT22;11958;50.836;4.438;2024-02-26T05:17:08;7.20;93.10
23560;DHT22;11958;50.836;4.438;2024-02-26T05:19:33;7.10;93.30
23560;DHT22;11958;50.836;4.438;2024-02-26T05:21:59;7.30;92.20
23560;DHT22;11958;50.836;4.438;2024-02-26T05:24:25;6.90;93.10
23560;DHT22;11958;50.836;4.438;2024-02-26T05:26:50;6.80;94.20
23560;DHT22;11958;50.836;4.438;2024-02-26T05:29:16;6.80;94.10
23560;DHT22;11958;50.836;4.438;2024-02-26T05:31:42;6.60;94.60
23560;DHT22;11958;50.836;4.438;2024-02-26T05:34:08;6.70;94.70
23560;DHT22;11958;50.836;4.438;2024-02-26T05:36:33;6.70;94.80
23560;DHT22;11958;50.836;4.438;2024-02-26T05:39:02;6.70;94.90
23560;DHT22;11958;50.836;4.438;2024-02-26T05:41:29;6.50;95.10
23560;DHT22;11958;50.836;4.438;2024-02-26T05:43:55;6.60;95.30
23560;DHT22;11958;50.836;4.438;2024-02-26T05:46:21;6.30;95.60
23560;DHT22;11958;50.836;4.438;2024-02-26T05:48:48;6.70;95.90
23560;DHT22;11958;50.836;4.438;2024-02-26T05:51:14;6.70;95.30
23560;DHT22;11958;50.836;4.438;2024-02-26T05:53:41;6.50;95.80
23560;DHT22;11958;50.836;4.438;2024-02-26T05:56:06;6.60;95.80
23560;DHT22;11958;50.836;4.438;2024-02-26T05:58:32;6.50;95.60
23560;DHT22;11958;50.836;4.438;2024-02-26T06:00:58;6.60;95.80
23560;DHT22;11958;50.836;4.438;2024-02-26T06:03:23;6.60;95.60
23560;DHT22;11958;50.836;4.438;2024-02-26T06:05:49;6.50;95.60
23560;DHT22;11958;50.836;4.438;2024-02-26T06:08:15;6.40;96.00
23560;DHT22;11958;50.836;4.438;2024-02-26T06:10:40;6.60;95.90
23560;DHT22;11958;50.836;4.438;2024-02-26T06:13:06;6.40;95.70
23560;DHT22;11958;50.836;4.438;2024-02-26T06:15:32;6.50;96.20
23560;DHT22;11958;50.836;4.438;2024-02-26T06:17:57;6.50;96.30
23560;DHT22;11958;50.836;4.438;2024-02-26T06:20:23;6.60;95.80
23560;DHT22;11958;50.836;4.438;2024-02-26T06:22:49;6.50;95.90
23560;DHT22;11958;50.836;4.438;2024-02-26T06:25:14;6.40;96.40
23560;DHT22;11958;50.836;4.438;2024-02-26T06:27:40;6.30;96.70
23560;DHT22;11958;50.836;4.438;2024-02-26T06:30:06;6.50;96.80
23560;DHT22;11958;50.836;4.438;2024-02-26T06:32:32;6.30;96.40
23560;DHT22;11958;50.836;4.438;2024-02-26T06:34:58;6.50;96.80
23560;DHT22;11958;50.836;4.438;2024-02-26T06:37:23;6.50;96.80
23560;DHT22;11958;50.836;4.438;2024-02-26T06:39:49;6.30;96.40
23560;DHT22;11958;50.836;4.438;2024-02-26T06:42:15;6.50;96.50
23560;DHT22;11958;50.836;4.438;2024-02-26T06:44:55;6.30;96.30
23560;DHT22;11958;50.836;4.438;2024-02-26T06:47:20;6.50;95.80
23560;DHT22;11958;50.836;4.438;2024-02-26T06:49:46;6.40;95.90
23560;DHT22;11958;50.836;4.438;2024-02-26T06:52:11;6.60;96.10
23560;DHT22;11958;50.836;4.438;2024-02-26T06:54:38;6.60;95.40
23560;DHT22;11958;50.836;4.438;2024-02-26T06:57:03;6.60;95.70
23560;DHT22;11958;50.836;4.438;2024-02-26T06:59:29;6.50;95.70
23560;DHT22;11958;50.836;4.438;2024-02-26T07:01:55;6.40;95.60
23560;DHT22;11958;50.836;4.438;2024-02-26T07:04:20;6.30;96.00
23560;DHT22;11958;50.836;4.438;2024-02-26T07:06:47;6.50;96.10
23560;DHT22;11958;50.836;4.438;2024-02-26T07:09:13;6.60;95.00
23560;DHT22;11958;50.836;4.438;2024-02-26T07:11:39;6.50;95.20
23560;DHT22;11958;50.836;4.438;2024-02-26T07:14:09;6.40;95.40
23560;DHT22;11958;50.836;4.438;2024-02-26T07:16:35;6.30;96.00
23560;DHT22;11958;50.836;4.438;2024-02-26T07:19:01;6.30;96.30
23560;DHT22;11958;50.836;4.438;2024-02-26T07:21:26;6.20;96.20
23560;DHT22;11958;50.836;4.438;2024-02-26T07:23:52;6.30;96.20
23560;DHT22;11958;50.836;4.438;2024-02-26T07:26:18;6.40;95.90
23560;DHT22;11958;50.836;4.438;2024-02-26T07:28:45;6.40;96.20
23560;DHT22;11958;50.836;4.438;2024-02-26T07:31:10;6.40;95.50
23560;DHT22;11958;50.836;4.438;2024-02-26T07:33:36;6.30;95.20
23560;DHT22;11958;50.836;4.438;2024-02-26T07:36:02;6.40;95.60
23560;DHT22;11958;50.836;4.438;2024-02-26T07:38:27;6.20;96.40
23560;DHT22;11958;50.836;4.438;2024-02-26T07:40:53;6.10;96.40
23560;DHT22;11958;50.836;4.438;2024-02-26T07:43:19;6.40;96.10
23560;DHT22;11958;50.836;4.438;2024-02-26T07:45:44;6.30;96.20
23560;DHT22;11958;50.836;4.438;2024-02-26T07:48:10;6.20;96.20
23560;DHT22;11958;50.836;4.438;2024-02-26T07:50:35;6.20;96.50
23560;DHT22;11958;50.836;4.438;2024-02-26T07:53:01;6.20;96.00
23560;DHT22;11958;50.836;4.438;2024-02-26T07:55:27;6.50;96.30
23560;DHT22;11958;50.836;4.438;2024-02-26T07:57:52;6.40;96.00
23560;DHT22;11958;50.836;4.438;2024-02-26T08:00:18;6.20;95.30
23560;DHT22;11958;50.836;4.438;2024-02-26T08:02:44;6.50;95.40
23560;DHT22;11958;50.836;4.438;2024-02-26T08:05:10;6.30;95.80
23560;DHT22;11958;50.836;4.438;2024-02-26T08:07:35;6.40;95.60
23560;DHT22;11958;50.836;4.438;2024-02-26T08:10:01;6.50;95.30
23560;DHT22;11958;50.836;4.438;2024-02-26T08:12:27;6.40;95.10
23560;DHT22;11958;50.836;4.438;2024-02-26T08:14:55;6.10;95.50
23560;DHT22;11958;50.836;4.438;2024-02-26T08:17:21;6.30;95.50
23560;DHT22;11958;50.836;4.438;2024-02-26T08:19:47;6.20;95.40
23560;DHT22;11958;50.836;4.438;2024-02-26T08:22:12;6.20;96.00
23560;DHT22;11958;50.836;4.438;2024-02-26T08:24:42;6.20;96.10
23560;DHT22;11958;50.836;4.438;2024-02-26T08:27:07;6.30;96.30
23560;DHT22;11958;50.836;4.438;2024-02-26T08:29:33;6.30;96.40
23560;DHT22;11958;50.836;4.438;2024-02-26T08:31:59;6.30;96.30
23560;DHT22;11958;50.836;4.438;2024-02-26T08:34:25;6.30;96.40
23560;DHT22;11958;50.836;4.438;2024-02-26T08:36:50;6.10;96.80
23560;DHT22;11958;50.836;4.438;2024-02-26T08:39:17;6.40;96.60
23560;DHT22;11958;50.836;4.438;2024-02-26T08:41:46;6.40;96.30
23560;DHT22;11958;50.836;4.438;2024-02-26T08:44:14;6.40;96.10
23560;DHT22;11958;50.836;4.438;2024-02-26T08:46:39;6.40;96.10
23560;DHT22;11958;50.836;4.438;2024-02-26T08:49:05;6.20;96.60
23560;DHT22;11958;50.836;4.438;2024-02-26T08:51:31;6.20;96.40
23560;DHT22;11958;50.836;4.438;2024-02-26T08:53:56;6.10;96.30
23560;DHT22;11958;50.836;4.438;2024-02-26T08:56:22;6.10;96.20
23560;DHT22;11958;50.836;4.438;2024-02-26T08:58:48;6.30;96.40
23560;DHT22;11958;50.836;4.438;2024-02-26T09:01:19;6.40;95.80
23560;DHT22;11958;50.836;4.438;2024-02-26T09:03:45;6.20;96.00
23560;DHT22;11958;50.836;4.438;2024-02-26T09:06:11;6.00;96.40
23560;DHT22;11958;50.836;4.438;2024-02-26T09:08:39;6.20;96.70
23560;DHT22;11958;50.836;4.438;2024-02-26T09:11:05;6.20;96.50
23560;DHT22;11958;50.836;4.438;2024-02-26T09:13:30;6.30;96.70
23560;DHT22;11958;50.836;4.438;2024-02-26T09:15:56;6.50;96.70
23560;DHT22;11958;50.836;4.438;2024-02-26T09:18:24;6.40;95.80
23560;DHT22;11958;50.836;4.438;2024-02-26T09:20:49;6.20;95.90
23560;DHT22;11958;50.836;4.438;2024-02-26T09:23:16;6.40;96.10
23560;DHT22;11958;50.836;4.438;2024-02-26T09:25:42;6.50;95.70
23560;DHT22;11958;50.836;4.438;2024-02-26T09:28:07;6.30;95.00
23560;DHT22;11958;50.836;4.438;2024-02-26T09:30:33;6.40;95.00
23560;DHT22;11958;50.836;4.438;2024-02-26T09:32:59;6.30;95.30
23560;DHT22;11958;50.836;4.438;2024-02-26T09:35:24;6.30;95.70
23560;DHT22;11958;50.836;4.438;2024-02-26T09:37:51;6.40;96.10
23560;DHT22;11958;50.836;4.438;2024-02-26T09:40:17;6.60;95.50
23560;DHT22;11958;50.836;4.438;2024-02-26T09:42:44;6.60;95.40
23560;DHT22;11958;50.836;4.438;2024-02-26T09:45:37;6.50;94.90
23560;DHT22;11958;50.836;4.438;2024-02-26T09:48:08;6.70;94.70
23560;DHT22;11958;50.836;4.438;2024-02-26T09:50:36;6.40;94.70
23560;DHT22;11958;50.836;4.438;2024-02-26T09:53:04;6.50;95.40
23560;DHT22;11958;50.836;4.438;2024-02-26T09:55:30;6.70;95.60
23560;DHT22;11958;50.836;4.438;2024-02-26T09:57:57;6.70;94.80
23560;DHT22;11958;50.836;4.438;2024-02-26T10:00:25;6.50;94.90
23560;DHT22;11958;50.836;4.438;2024-02-26T10:02:55;6.50;95.10
23560;DHT22;11958;50.836;4.438;2024-02-26T10:05:23;6.30;95.30
23560;DHT22;11958;50.836;4.438;2024-02-26T10:07:50;6.70;95.30
23560;DHT22;11958;50.836;4.438;2024-02-26T10:10:17;6.50;94.80
23560;DHT22;11958;50.836;4.438;2024-02-26T10:12:43;6.40;94.50
23560;DHT22;11958;50.836;4.438;2024-02-26T10:15:09;6.30;94.70
23560;DHT22;11958;50.836;4.438;2024-02-26T10:17:34;6.30;94.60
23560;DHT22;11958;50.836;4.438;2024-02-26T10:20:15;6.50;94.90
23560;DHT22;11958;50.836;4.438;2024-02-26T10:22:42;6.40;94.80
23560;DHT22;11958;50.836;4.438;2024-02-26T10:25:08;6.30;95.60
23560;DHT22;11958;50.836;4.438;2024-02-26T10:27:34;6.50;95.20
23560;DHT22;11958;50.836;4.438;2024-02-26T10:30:23;6.60;94.80
23560;DHT22;11958;50.836;4.438;2024-02-26T10:32:51;6.60;94.80
23560;DHT22;11958;50.836;4.438;2024-02-26T10:35:18;6.60;94.50
23560;DHT22;11958;50.836;4.438;2024-02-26T10:37:44;6.60;94.60
23560;DHT22;11958;50.836;4.438;2024-02-26T10:40:13;6.50;94.70
23560;DHT22;11958;50.836;4.438;2024-02-26T10:42:40;6.60;94.40
23560;DHT22;11958;50.836;4.438;2024-02-26T10:45:06;6.60;94.20
23560;DHT22;11958;50.836;4.438;2024-02-26T10:47:32;6.60;93.70
23560;DHT22;11958;50.836;4.438;2024-02-26T10:50:00;6.30;94.20
23560;DHT22;11958;50.836;4.438;2024-02-26T10:52:27;6.50;94.00
23560;DHT22;11958;50.836;4.438;2024-02-26T10:54:56;6.50;93.80
23560;DHT22;11958;50.836;4.438;2024-02-26T10:57:25;6.50;93.40
23560;DHT22;11958;50.836;4.438;2024-02-26T10:59:52;6.40;93.40
23560;DHT22;11958;50.836;4.438;2024-02-26T11:02:20;6.50;93.30
23560;DHT22;11958;50.836;4.438;2024-02-26T11:04:46;6.40;93.10
23560;DHT22;11958;50.836;4.438;2024-02-26T11:07:13;6.50;93.10
23560;DHT22;11958;50.836;4.438;2024-02-26T11:09:40;6.40;92.80
23560;DHT22;11958;50.836;4.438;2024-02-26T11:12:09;6.50;92.90
23560;DHT22;11958;50.836;4.438;2024-02-26T11:14:39;6.40;92.70
23560;DHT22;11958;50.836;4.438;2024-02-26T11:17:07;6.50;92.70
23560;DHT22;11958;50.836;4.438;2024-02-26T11:19:35;6.70;92.80
23560;DHT22;11958;50.836;4.438;2024-02-26T11:22:01;6.70;92.00
23560;DHT22;11958;50.836;4.438;2024-02-26T11:24:27;6.30;92.00
23560;DHT22;11958;50.836;4.438;2024-02-26T11:27:00;6.40;92.60
23560;DHT22;11958;50.836;4.438;2024-02-26T11:29:38;6.60;92.10
23560;DHT22;11958;50.836;4.438;2024-02-26T11:32:06;6.50;92.10
23560;DHT22;11958;50.836;4.438;2024-02-26T11:34:32;6.30;92.40
23560;DHT22;11958;50.836;4.438;2024-02-26T11:36:58;6.40;92.40
23560;DHT22;11958;50.836;4.438;2024-02-26T11:39:34;6.50;92.30
23560;DHT22;11958;50.836;4.438;2024-02-26T11:42:24;6.30;92.20
23560;DHT22;11958;50.836;4.438;2024-02-26T11:44:51;6.30;92.80
23560;DHT22;11958;50.836;4.438;2024-02-26T11:47:21;6.40;92.50
23560;DHT22;11958;50.836;4.438;2024-02-26T11:49:47;6.10;92.40
23560;DHT22;11958;50.836;4.438;2024-02-26T11:52:14;6.40;92.70
23560;DHT22;11958;50.836;4.438;2024-02-26T11:54:40;6.30;91.70
23560;DHT22;11958;50.836;4.438;2024-02-26T11:57:22;6.50;91.70
23560;DHT22;11958;50.836;4.438;2024-02-26T11:59:48;6.50;92.20
23560;DHT22;11958;50.836;4.438;2024-02-26T12:05:16;6.40;92.30
23560;DHT22;11958;50.836;4.438;2024-02-26T12:08:08;6.20;92.60
23560;DHT22;11958;50.836;4.438;2024-02-26T12:10:36;6.40;92.80
23560;DHT22;11958;50.836;4.438;2024-02-26T12:13:11;6.30;93.30
23560;DHT22;11958;50.836;4.438;2024-02-26T12:15:44;6.40;91.40
23560;DHT22;11958;50.836;4.438;2024-02-26T12:18:15;6.30;92.70
23560;DHT22;11958;50.836;4.438;2024-02-26T12:20:42;6.30;92.40
23560;DHT22;11958;50.836;4.438;2024-02-26T12:23:14;6.30;92.10
23560;DHT22;11958;50.836;4.438;2024-02-26T12:25:40;6.20;91.90
23560;DHT22;11958;50.836;4.438;2024-02-26T12:28:07;6.30;92.20
23560;DHT22;11958;50.836;4.438;2024-02-26T12:30:33;6.30;93.00
23560;DHT22;11958;50.836;4.438;2024-02-26T12:33:00;6.20;92.80
23560;DHT22;11958;50.836;4.438;2024-02-26T12:35:27;6.60;92.10
23560;DHT22;11958;50.836;4.438;2024-02-26T12:37:53;6.40;92.30
23560;DHT22;11958;50.836;4.438;2024-02-26T12:40:20;6.60;92.20
23560;DHT22;11958;50.836;4.438;2024-02-26T12:42:46;6.40;92.00
23560;DHT22;11958;50.836;4.438;2024-02-26T12:45:13;6.40;92.30
23560;DHT22;11958;50.836;4.438;2024-02-26T12:47:42;6.60;92.60
23560;DHT22;11958;50.836;4.438;2024-02-26T12:50:09;6.60;90.60
23560;DHT22;11958;50.836;4.438;2024-02-26T12:52:37;6.60;91.30
23560;DHT22;11958;50.836;4.438;2024-02-26T12:55:05;6.60;91.00
23560;DHT22;11958;50.836;4.438;2024-02-26T12:57:35;6.60;91.60
23560;DHT22;11958;50.836;4.438;2024-02-26T13:00:02;6.40;92.00
23560;DHT22;11958;50.836;4.438;2024-02-26T13:02:29;6.60;92.10
23560;DHT22;11958;50.836;4.438;2024-02-26T13:05:14;6.30;91.90
23560;DHT22;11958;50.836;4.438;2024-02-26T13:07:43;6.60;92.10
23560;DHT22;11958;50.836;4.438;2024-02-26T13:10:10;6.50;92.30
23560;DHT22;11958;50.836;4.438;2024-02-26T13:12:47;6.50;92.20
23560;DHT22;11958;50.836;4.438;2024-02-26T13:15:18;6.50;92.20
23560;DHT22;11958;50.836;4.438;2024-02-26T13:17:44;6.60;91.40
23560;DHT22;11958;50.836;4.438;2024-02-26T13:20:10;6.20;91.80
23560;DHT22;11958;50.836;4.438;2024-02-26T13:22:36;6.30;92.30
23560;DHT22;11958;50.836;4.438;2024-02-26T13:25:28;6.40;92.60
23560;DHT22;11958;50.836;4.438;2024-02-26T13:33:44;6.10;92.60
23560;DHT22;11958;50.836;4.438;2024-02-26T13:36:15;6.40;91.70
23560;DHT22;11958;50.836;4.438;2024-02-26T13:38:51;6.20;91.70
23560;DHT22;11958;50.836;4.438;2024-02-26T13:41:21;6.30;92.10
23560;DHT22;11958;50.836;4.438;2024-02-26T13:46:53;6.20;92.20
23560;DHT22;11958;50.836;4.438;2024-02-26T14:07:36;6.30;91.80
23560;DHT22;11958;50.836;4.438;2024-02-26T14:10:02;6.20;93.20
23560;DHT22;11958;50.836;4.438;2024-02-26T14:12:28;6.20;93.00
23560;DHT22;11958;50.836;4.438;2024-02-26T14:14:54;6.30;93.40
23560;DHT22;11958;50.836;4.438;2024-02-26T14:17:21;6.20;93.40
23560;DHT22;11958;50.836;4.438;2024-02-26T14:19:47;6.20;93.50
23560;DHT22;11958;50.836;4.438;2024-02-26T14:22:14;6.00;93.90
23560;DHT22;11958;50.836;4.438;2024-02-26T14:24:41;6.20;94.10
23560;DHT22;11958;50.836;4.438;2024-02-26T14:27:12;6.20;93.90
23560;DHT22;11958;50.836;4.438;2024-02-26T14:29:41;6.20;94.20
23560;DHT22;11958;50.836;4.438;2024-02-26T14:32:08;6.20;94.60
23560;DHT22;11958;50.836;4.438;2024-02-26T14:34:34;6.30;94.50
23560;DHT22;11958;50.836;4.438;2024-02-26T14:37:00;6.30;94.60
23560;DHT22;11958;50.836;4.438;2024-02-26T14:39:25;6.40;94.90
23560;DHT22;11958;50.836;4.438;2024-02-26T14:41:52;6.20;94.10
23560;DHT22;11958;50.836;4.438;2024-02-26T14:44:17;6.40;94.50
23560;DHT22;11958;50.836;4.438;2024-02-26T14:46:43;6.50;94.30
23560;DHT22;11958;50.836;4.438;2024-02-26T14:49:09;6.60;94.20
23560;DHT22;11958;50.836;4.438;2024-02-26T14:51:36;6.50;94.90
23560;DHT22;11958;50.836;4.438;2024-02-26T14:54:01;6.50;94.70
23560;DHT22;11958;50.836;4.438;2024-02-26T14:56:27;6.40;94.80
23560;DHT22;11958;50.836;4.438;2024-02-26T14:58:53;6.30;95.30
23560;DHT22;11958;50.836;4.438;2024-02-26T15:01:19;6.40;95.10
23560;DHT22;11958;50.836;4.438;2024-02-26T15:03:44;6.30;94.70
23560;DHT22;11958;50.836;4.438;2024-02-26T15:06:10;6.30;94.70
23560;DHT22;11958;50.836;4.438;2024-02-26T15:08:36;6.30;95.20
23560;DHT22;11958;50.836;4.438;2024-02-26T15:11:02;6.60;95.00
23560;DHT22;11958;50.836;4.438;2024-02-26T15:13:28;6.50;94.40
23560;DHT22;11958;50.836;4.438;2024-02-26T15:15:54;6.40;94.20
23560;DHT22;11958;50.836;4.438;2024-02-26T15:18:19;6.20;93.70
23560;DHT22;11958;50.836;4.438;2024-02-26T15:20:45;6.20;94.40
23560;DHT22;11958;50.836;4.438;2024-02-26T15:23:11;6.20;94.70
23560;DHT22;11958;50.836;4.438;2024-02-26T15:25:37;6.40;94.10
23560;DHT22;11958;50.836;4.438;2024-02-26T15:28:04;6.20;94.20
23560;DHT22;11958;50.836;4.438;2024-02-26T15:30:32;6.10;94.30
23560;DHT22;11958;50.836;4.438;2024-02-26T15:32:58;6.00;94.20
23560;DHT22;11958;50.836;4.438;2024-02-26T15:35:25;6.20;94.50
23560;DHT22;11958;50.836;4.438;2024-02-26T15:37:51;6.10;94.50
23560;DHT22;11958;50.836;4.438;2024-02-26T15:40:17;6.30;94.20
23560;DHT22;11958;50.836;4.438;2024-02-26T15:42:43;6.20;94.10
23560;DHT22;11958;50.836;4.438;2024-02-26T15:45:09;6.10;94.60
23560;DHT22;11958;50.836;4.438;2024-02-26T15:47:34;6.20;94.80
23560;DHT22;11958;50.836;4.438;2024-02-26T15:50:01;6.00;95.00
23560;DHT22;11958;50.836;4.438;2024-02-26T15:52:27;6.00;95.30
23560;DHT22;11958;50.836;4.438;2024-02-26T15:54:54;6.30;95.40
23560;DHT22;11958;50.836;4.438;2024-02-26T15:57:20;6.40;94.80
23560;DHT22;11958;50.836;4.438;2024-02-26T15:59:46;6.40;95.00
23560;DHT22;11958;50.836;4.438;2024-02-26T16:02:13;6.30;95.30
23560;DHT22;11958;50.836;4.438;2024-02-26T16:04:40;6.30;94.70
23560;DHT22;11958;50.836;4.438;2024-02-26T16:07:07;6.20;95.60
23560;DHT22;11958;50.836;4.438;2024-02-26T16:09:38;6.30;95.70
23560;DHT22;11958;50.836;4.438;2024-02-26T16:12:17;6.30;95.50